Johan Hjort — LDGJ — position and weather

sailwx.info

Track history (hours):
 
Tides and Currents Weather Stations Pressure Air Temp Water Temp Dewpoint Dewpoint Depression Visibility Wind Speed Wind Dir Waves Ship Positions

Oceanographic research ship Johan Hjort (Norway)

Detailed information on ship capabilities available from University of Delaware's Ocean Information Center and ARCUS's ALIAS (Arctic Logistics Information and Support) project.

Last reported at 2020-Sep-15 11:47 UTC. Time now 2020-Sep-20 02:06 UTC.
Position N 76°29' E 014°50'.

MMSI: 257139000.

Date/timePositionNaut miles runAvg speedWind from/ knotsBaromVisibWave heightAir tempDewpointWater temp
2020-Sep-15 11:47N 76°29' E 014°50'15 2.3
2020-Sep-15 05:10N 76°36' E 013°53'3 1.1
2020-Sep-15 02:30N 76°39' E 013°51'17 3.2
2020-Sep-14 21:00N 76°56' E 013°30'1 0.7
2020-Sep-14 19:59N 76°55' E 013°33'10 1.8
2020-Sep-14 14:30N 77°01' E 012°55'14 7.1
2020-Sep-14 12:30N 77°10' E 013°42'16 6.5
2020-Sep-14 10:00N 77°14' E 012°32'11 3.0
2020-Sep-14 06:30N 77°15' E 011°45'5 4.5
2020-Sep-14 05:30N 77°16' E 011°25'1 2.3
2020-Sep-14 05:00N 77°17' E 011°23'31 4.8
2020-Sep-13 22:30N 77°36' E 013°14'510.1
2020-Sep-13 22:00N 77°37' E 012°51'510.0
2020-Sep-13 21:30N 77°37' E 012°27'16 2.8
2020-Sep-13 15:59N 77°37' E 011°15'3 5.5
2020-Sep-13 15:30N 77°38' E 011°03'1 0.8
2020-Sep-13 14:30N 77°38' E 011°00'3 3.0
2020-Sep-13 13:30N 77°40' E 011°12'30 6.7
2020-Sep-13 09:00N 77°57' E 013°09'4 7.1
2020-Sep-13 08:30N 77°58' E 012°52'18 5.2
2020-Sep-13 05:00N 77°56' E 011°26'2 4.0
2020-Sep-13 04:30N 77°57' E 011°19'2 4.6
2020-Sep-13 04:00N 77°57' E 011°31'10 4.8
2020-Sep-13 01:59N 77°56' E 010°45'14 5.7
2020-Sep-12 23:30N 77°58' E 009°37'6 2.6
2020-Sep-12 21:00N 78°00' E 010°05'510.5
2020-Sep-12 20:31N 78°04' E 010°25'1010.3
2020-Sep-12 19:30N 78°10' E 011°04'9 4.5
2020-Sep-12 17:30N 78°17' E 010°33'6 3.9
2020-Sep-12 16:00N 78°18' E 010°04'2 3.2
2020-Sep-12 15:30N 78°17' E 010°12'2 1.9
2020-Sep-12 14:31N 78°17' E 010°03'7 1.5
2020-Sep-12 10:00N 78°23' E 009°44'13 8.8
2020-Sep-12 08:30N 78°33' E 010°28'4 2.2
2020-Sep-12 06:31N 78°37' E 010°18'5 3.2
2020-Sep-12 05:01N 78°38' E 009°54'0 0.8
2020-Sep-12 04:30N 78°38' E 009°52'13 4.3
2020-Sep-12 01:30N 78°44' E 008°53'3 2.2
2020-Sep-12 00:00N 78°43' E 009°10'8 5.6
2020-Sep-11 22:30N 78°49' E 009°43'22 6.2
2020-Sep-11 19:00N 78°60' E 011°20'15 1.8
2020-Sep-11 11:00N 79°02' E 010°03'10 4.9
2020-Sep-11 09:00N 79°03' E 009°12'1 2.1
2020-Sep-11 08:30N 79°03' E 009°18'5 8.2
2020-Sep-11 07:50N 79°03' E 008°49'3 2.4
2020-Sep-11 06:30N 79°06' E 008°49'2 3.3
2020-Sep-11 06:00N 79°05' E 008°44'1 0.7
2020-Sep-11 03:53N 79°06' E 008°49'4 9.4
2020-Sep-11 03:30N 79°09' E 009°03'16 4.0
2020-Sep-10 23:29N 79°25' E 009°10'4 2.6
2020-Sep-10 22:00N 79°25' E 008°49'4 8.4
2020-Sep-10 21:30N 79°25' E 008°25'510.0
2020-Sep-10 21:00N 79°25' E 007°58'2 1.2
2020-Sep-10 19:25N 79°27' E 008°04'17 3.5
2020-Sep-10 14:30N 79°37' E 009°19'35 3.7
2020-Sep-10 05:00N 79°02' E 009°38'1510.3
2020-Sep-10 03:30N 78°47' E 009°53'2110.7
2020-Sep-10 01:30N 78°27' E 010°30'2610.5
2020-Sep-09 23:00N 78°08' E 011°56'3810.8
2020-Sep-09 19:29N 78°14' E 014°59'8 5.0
2020-Sep-09 18:00N 78°14' E 015°36'0 0.0
2020-Sep-09 17:28N 78°14' E 015°36'0 0.0
2020-Sep-09 15:58N 78°14' E 015°36'0 0.0
2020-Sep-09 12:58N 78°14' E 015°36'0 0.0
2020-Sep-09 10:58N 78°14' E 015°36'0 0.0
2020-Sep-09 09:28N 78°14' E 015°36'0 0.0
2020-Sep-09 08:58N 78°14' E 015°36'0 0.0
2020-Sep-09 07:58N 78°14' E 015°36'0 0.0
2020-Sep-09 06:58N 78°14' E 015°36'0 0.0
2020-Sep-09 05:58N 78°14' E 015°36'0 0.0
2020-Sep-09 02:58N 78°14' E 015°36'0 0.0
2020-Sep-09 01:58N 78°14' E 015°36'0 0.0
2020-Sep-09 00:58N 78°14' E 015°36'0 0.0
2020-Sep-09 00:28N 78°14' E 015°36'0 0.0
2020-Sep-08 23:28N 78°14' E 015°36'0 0.0
2020-Sep-08 18:58N 78°14' E 015°36'0 0.0
2020-Sep-08 16:28N 78°14' E 015°36'0 0.0
2020-Sep-08 15:28N 78°14' E 015°36'0 0.0
2020-Sep-08 08:00N 78°14' E 015°36'0 0.0
2020-Sep-08 05:30N 78°14' E 015°36'0 0.0
2020-Sep-08 03:30N 78°14' E 015°36'0 0.0
2020-Sep-08 02:00N 78°14' E 015°36'0 0.0
2020-Sep-08 01:00N 78°14' E 015°36'0 0.0
2020-Sep-07 23:00N 78°14' E 015°36'0 0.0
2020-Sep-07 22:30N 78°14' E 015°36'0 0.0
2020-Sep-07 21:00N 78°14' E 015°36'0 0.0
2020-Sep-07 20:00N 78°14' E 015°36'20 5.8
2020-Sep-07 16:30N 78°17' E 013°58'11 0.4
2020-Sep-06 15:54N 78°10' E 014°40'4 8.8
2020-Sep-06 15:29N 78°10' E 014°22'27 9.1
2020-Sep-06 12:30N 77°56' E 012°30'9 9.0
2020-Sep-06 11:30N 77°49' E 012°06'9 6.2
2020-Sep-06 10:00N 77°40' E 011°45'  
Track history (hours):
 
Tides and Currents Weather Stations Pressure Air Temp Water Temp Dewpoint Dewpoint Depression Visibility Wind Speed Wind Dir Waves Ship Positions

Oceanographic research ship Johan Hjort (Norway)

Detailed information on ship capabilities available from University of Delaware's Ocean Information Center and ARCUS's ALIAS (Arctic Logistics Information and Support) project.

Last reported at 2020-Sep-15 11:47 UTC. Time now 2020-Sep-20 02:06 UTC.
Position N 76°29' E 014°50'.

MMSI: 257139000.

Date/timePositionNaut miles runAvg speedWind from/ knotsBaromVisibWave heightAir tempDewpointWater temp
2020-Sep-15 11:47N 76°29' E 014°50'15 2.3
2020-Sep-15 05:10N 76°36' E 013°53'3 1.1
2020-Sep-15 02:30N 76°39' E 013°51'17 3.2
2020-Sep-14 21:00N 76°56' E 013°30'1 0.7
2020-Sep-14 19:59N 76°55' E 013°33'10 1.8
2020-Sep-14 14:30N 77°01' E 012°55'14 7.1
2020-Sep-14 12:30N 77°10' E 013°42'16 6.5
2020-Sep-14 10:00N 77°14' E 012°32'11 3.0
2020-Sep-14 06:30N 77°15' E 011°45'5 4.5
2020-Sep-14 05:30N 77°16' E 011°25'1 2.3
2020-Sep-14 05:00N 77°17' E 011°23'31 4.8
2020-Sep-13 22:30N 77°36' E 013°14'510.1
2020-Sep-13 22:00N 77°37' E 012°51'510.0
2020-Sep-13 21:30N 77°37' E 012°27'16 2.8
2020-Sep-13 15:59N 77°37' E 011°15'3 5.5
2020-Sep-13 15:30N 77°38' E 011°03'1 0.8
2020-Sep-13 14:30N 77°38' E 011°00'3 3.0
2020-Sep-13 13:30N 77°40' E 011°12'30 6.7
2020-Sep-13 09:00N 77°57' E 013°09'4 7.1
2020-Sep-13 08:30N 77°58' E 012°52'18 5.2
2020-Sep-13 05:00N 77°56' E 011°26'2 4.0
2020-Sep-13 04:30N 77°57' E 011°19'2 4.6
2020-Sep-13 04:00N 77°57' E 011°31'10 4.8
2020-Sep-13 01:59N 77°56' E 010°45'14 5.7
2020-Sep-12 23:30N 77°58' E 009°37'6 2.6
2020-Sep-12 21:00N 78°00' E 010°05'510.5
2020-Sep-12 20:31N 78°04' E 010°25'1010.3
2020-Sep-12 19:30N 78°10' E 011°04'9 4.5
2020-Sep-12 17:30N 78°17' E 010°33'6 3.9
2020-Sep-12 16:00N 78°18' E 010°04'2 3.2
2020-Sep-12 15:30N 78°17' E 010°12'2 1.9
2020-Sep-12 14:31N 78°17' E 010°03'7 1.5
2020-Sep-12 10:00N 78°23' E 009°44'13 8.8
2020-Sep-12 08:30N 78°33' E 010°28'4 2.2
2020-Sep-12 06:31N 78°37' E 010°18'5 3.2
2020-Sep-12 05:01N 78°38' E 009°54'0 0.8
2020-Sep-12 04:30N 78°38' E 009°52'13 4.3
2020-Sep-12 01:30N 78°44' E 008°53'3 2.2
2020-Sep-12 00:00N 78°43' E 009°10'8 5.6
2020-Sep-11 22:30N 78°49' E 009°43'22 6.2
2020-Sep-11 19:00N 78°60' E 011°20'15 1.8
2020-Sep-11 11:00N 79°02' E 010°03'10 4.9
2020-Sep-11 09:00N 79°03' E 009°12'1 2.1
2020-Sep-11 08:30N 79°03' E 009°18'5 8.2
2020-Sep-11 07:50N 79°03' E 008°49'3 2.4
2020-Sep-11 06:30N 79°06' E 008°49'2 3.3
2020-Sep-11 06:00N 79°05' E 008°44'1 0.7
2020-Sep-11 03:53N 79°06' E 008°49'4 9.4
2020-Sep-11 03:30N 79°09' E 009°03'16 4.0
2020-Sep-10 23:29N 79°25' E 009°10'4 2.6
2020-Sep-10 22:00N 79°25' E 008°49'4 8.4
2020-Sep-10 21:30N 79°25' E 008°25'510.0
2020-Sep-10 21:00N 79°25' E 007°58'2 1.2
2020-Sep-10 19:25N 79°27' E 008°04'17 3.5
2020-Sep-10 14:30N 79°37' E 009°19'35 3.7
2020-Sep-10 05:00N 79°02' E 009°38'1510.3
2020-Sep-10 03:30N 78°47' E 009°53'2110.7
2020-Sep-10 01:30N 78°27' E 010°30'2610.5
2020-Sep-09 23:00N 78°08' E 011°56'3810.8
2020-Sep-09 19:29N 78°14' E 014°59'8 5.0
2020-Sep-09 18:00N 78°14' E 015°36'0 0.0
2020-Sep-09 17:28N 78°14' E 015°36'0 0.0
2020-Sep-09 15:58N 78°14' E 015°36'0 0.0
2020-Sep-09 12:58N 78°14' E 015°36'0 0.0
2020-Sep-09 10:58N 78°14' E 015°36'0 0.0
2020-Sep-09 09:28N 78°14' E 015°36'0 0.0
2020-Sep-09 08:58N 78°14' E 015°36'0 0.0
2020-Sep-09 07:58N 78°14' E 015°36'0 0.0
2020-Sep-09 06:58N 78°14' E 015°36'0 0.0
2020-Sep-09 05:58N 78°14' E 015°36'0 0.0
2020-Sep-09 02:58N 78°14' E 015°36'0 0.0
2020-Sep-09 01:58N 78°14' E 015°36'0 0.0
2020-Sep-09 00:58N 78°14' E 015°36'0 0.0
2020-Sep-09 00:28N 78°14' E 015°36'0 0.0
2020-Sep-08 23:28N 78°14' E 015°36'0 0.0
2020-Sep-08 18:58N 78°14' E 015°36'0 0.0
2020-Sep-08 16:28N 78°14' E 015°36'0 0.0
2020-Sep-08 15:28N 78°14' E 015°36'0 0.0
2020-Sep-08 08:00N 78°14' E 015°36'0 0.0
2020-Sep-08 05:30N 78°14' E 015°36'0 0.0
2020-Sep-08 03:30N 78°14' E 015°36'0 0.0
2020-Sep-08 02:00N 78°14' E 015°36'0 0.0
2020-Sep-08 01:00N 78°14' E 015°36'0 0.0
2020-Sep-07 23:00N 78°14' E 015°36'0 0.0
2020-Sep-07 22:30N 78°14' E 015°36'0 0.0
2020-Sep-07 21:00N 78°14' E 015°36'0 0.0
2020-Sep-07 20:00N 78°14' E 015°36'20 5.8
2020-Sep-07 16:30N 78°17' E 013°58'11 0.4
2020-Sep-06 15:54N 78°10' E 014°40'4 8.8
2020-Sep-06 15:29N 78°10' E 014°22'27 9.1
2020-Sep-06 12:30N 77°56' E 012°30'9 9.0
2020-Sep-06 11:30N 77°49' E 012°06'9 6.2
2020-Sep-06 10:00N 77°40' E 011°45'  

Dump ship's entire track history